KIKG

Details ICAO KIKG
Name KLEBERG CO
Region United States
Timezone America/Chicago (UTC-5.0)
Plans Departing 6
Arriving 3
Stats Elevation 131 ft / 40 m (AMSL)
Location 27.550856° -98.030925°
Runways 1
Magnetic Variation 3.966° E
Sunrise 2018-05-20 11:42:11 UTC / 2018-05-20 06:42:11 Local
Sunset 2018-05-21 01:18:00 UTC / 2018-05-20 20:18:00 Local
Advertisement - Login to hide

Runways

ID Width Length Bearing (true) Bearing (mag) Surface Threshold Offset Overrun Length
13 75 ft / 23 m 6,008 ft / 1,831 m 140.17° 136.20° Asphalt 0 ft / 0 m 0 ft / 0 m
31 75 ft / 23 m 6,008 ft / 1,831 m 320.18° 316.21° Asphalt 0 ft / 0 m 0 ft / 0 m

Map

Weather


0- 5 10 15 20 25 30 35+ Temperature / ° C

Clouds and Precipitation
Forecast for 2018-05-21 00:00 UTC. Updated 3 hours ago

Ground ~20,000 ft ~40,000 ft Winds

METAR

KIKG 210135Z AUTO 08010KT 10SM BKN020 OVC029 28/25 A2993 RMK AO2 T02820249

TAF

Not found

Frequencies

Recorded 119.07 MHz AWOS 3
Approach 119.90 MHz KINGSVILLE APP
Unicom 122.70 MHz CTAF/UNICOM
Departure 119.90 MHz KINGSVILLE DEP
Warning: Do not use this data for real-world aviation or navigation. No guarantee of current accuracy is given.